createdAt,value
2022-10-22T00:01:34.391Z,9.75
2022-10-22T00:04:01.669Z,9.40
2022-10-22T00:06:29.140Z,9.43
2022-10-22T00:08:56.573Z,9.32
2022-10-22T00:11:24.103Z,9.32
2022-10-22T00:13:51.376Z,10.20
2022-10-22T00:16:18.978Z,9.88
2022-10-22T00:18:46.267Z,9.95
2022-10-22T00:21:13.753Z,10.10
2022-10-22T00:23:53.194Z,10.00
2022-10-22T00:26:28.723Z,9.70
2022-10-22T00:28:56.123Z,10.40
2022-10-22T00:31:23.866Z,9.18
2022-10-22T00:33:53.797Z,10.43
2022-10-22T00:36:39.560Z,10.40
2022-10-22T00:39:06.892Z,12.10
2022-10-22T00:41:34.515Z,11.82
2022-10-22T00:44:04.095Z,12.07
2022-10-22T00:46:31.735Z,10.95
2022-10-22T00:49:00.398Z,10.80
2022-10-22T00:51:30.143Z,10.05
2022-10-22T00:54:00.373Z,10.40
2022-10-22T00:56:28.112Z,10.52
2022-10-22T00:58:59.602Z,10.10
2022-10-22T01:01:29.465Z,10.07
2022-10-22T01:03:57.017Z,10.27
2022-10-22T01:06:29.109Z,9.38
2022-10-22T01:08:56.370Z,10.68
2022-10-22T01:11:45.782Z,10.32
2022-10-22T01:14:42.287Z,9.90
2022-10-22T01:17:15.591Z,9.70
2022-10-22T01:19:45.679Z,9.70
2022-10-22T01:22:13.124Z,9.80
2022-10-22T01:24:52.567Z,9.27
2022-10-22T01:27:25.855Z,9.00
2022-10-22T01:29:56.963Z,9.85
2022-10-22T01:32:25.847Z,9.05
2022-10-22T01:34:55.605Z,8.32
2022-10-22T01:37:25.381Z,9.52
2022-10-22T01:39:53.063Z,8.75
2022-10-22T01:42:20.588Z,8.82
2022-10-22T01:44:47.896Z,8.68
2022-10-22T01:47:50.674Z,8.75
2022-10-22T01:50:17.994Z,10.02
2022-10-22T01:52:45.387Z,9.15
2022-10-22T01:55:12.680Z,9.30
2022-10-22T01:57:57.204Z,10.27
2022-10-22T02:00:24.835Z,10.18
2022-10-22T02:03:07.487Z,9.63
2022-10-22T02:05:35.050Z,9.25
2022-10-22T02:08:08.073Z,8.82
2022-10-22T02:10:39.274Z,9.05
2022-10-22T02:13:11.986Z,8.87
2022-10-22T02:15:40.035Z,8.82
2022-10-22T02:18:09.028Z,9.18
2022-10-22T02:20:38.497Z,9.32
2022-10-22T02:23:06.077Z,9.63
2022-10-22T02:25:37.449Z,10.18
2022-10-22T02:28:07.775Z,9.73
2022-10-22T02:30:35.951Z,8.82
2022-10-22T02:33:11.035Z,8.98
2022-10-22T02:35:40.578Z,7.90
2022-10-22T02:38:08.367Z,8.80
2022-10-22T02:40:35.909Z,8.63
2022-10-22T02:43:05.999Z,8.90
2022-10-22T02:45:33.556Z,9.25
2022-10-22T02:48:00.831Z,7.57
2022-10-22T02:50:28.351Z,8.27
2022-10-22T02:56:27.844Z,8.85
2022-10-22T02:58:55.361Z,8.63
2022-10-22T03:01:22.913Z,9.13
2022-10-22T03:03:50.436Z,8.77
2022-10-22T03:06:18.197Z,8.32
2022-10-22T03:08:45.759Z,9.23
2022-10-22T03:11:13.113Z,8.88
2022-10-22T03:13:40.574Z,8.15
2022-10-22T03:16:07.958Z,7.78
2022-10-22T03:18:35.963Z,8.13
2022-10-22T03:21:23.562Z,8.73
2022-10-22T03:23:51.718Z,8.20
2022-10-22T03:26:19.066Z,7.75
2022-10-22T03:28:46.589Z,8.32
2022-10-22T03:31:13.917Z,8.77
2022-10-22T03:33:41.399Z,7.68
2022-10-22T03:36:09.137Z,9.02
2022-10-22T03:38:38.869Z,8.48
2022-10-22T03:41:06.272Z,8.52
2022-10-22T03:43:34.405Z,8.65
2022-10-22T03:46:01.706Z,8.45
2022-10-22T03:48:29.374Z,8.27
2022-10-22T03:50:56.647Z,8.88
2022-10-22T03:53:24.127Z,8.88
2022-10-22T03:55:51.397Z,9.15
2022-10-22T03:58:18.834Z,8.63
2022-10-22T04:00:46.132Z,8.98
2022-10-22T04:03:13.707Z,8.40
2022-10-22T04:05:40.969Z,8.43
2022-10-22T04:08:08.404Z,8.20
2022-10-22T04:10:35.710Z,8.38
2022-10-22T04:13:03.131Z,9.20
2022-10-22T04:15:30.433Z,8.13
2022-10-22T04:17:57.862Z,8.98
2022-10-22T04:20:25.136Z,8.23
2022-10-22T04:22:52.709Z,8.35
2022-10-22T04:25:20.059Z,8.63
2022-10-22T04:27:47.513Z,8.52
2022-10-22T04:30:14.875Z,8.70
2022-10-22T04:32:42.355Z,8.18
2022-10-22T04:35:09.583Z,9.40
2022-10-22T04:37:37.130Z,8.60
2022-10-22T04:40:04.699Z,8.10
2022-10-22T04:42:32.195Z,8.98
2022-10-22T04:44:59.517Z,8.93
2022-10-22T04:47:26.975Z,9.55
2022-10-22T04:49:54.231Z,10.13
2022-10-22T04:52:21.686Z,9.80
2022-10-22T04:54:48.965Z,9.80
2022-10-22T04:57:16.497Z,9.20
2022-10-22T04:59:43.742Z,10.63
2022-10-22T05:02:11.215Z,10.30
2022-10-22T05:04:38.517Z,10.68
2022-10-22T05:07:05.956Z,10.93
2022-10-22T05:09:33.277Z,10.65
2022-10-22T05:12:00.752Z,10.40
2022-10-22T05:14:28.041Z,11.20
2022-10-22T05:16:55.644Z,10.25
2022-10-22T05:19:24.843Z,10.15
2022-10-22T05:21:53.420Z,10.23
2022-10-22T05:24:21.077Z,9.50
2022-10-22T05:30:20.625Z,8.98
2022-10-22T05:32:48.090Z,9.63
2022-10-22T05:35:15.426Z,10.95
2022-10-22T05:37:43.165Z,10.57
2022-10-22T05:40:26.414Z,9.77
2022-10-22T05:42:54.594Z,10.70
2022-10-22T05:45:21.846Z,10.52
2022-10-22T05:47:49.315Z,9.18
2022-10-22T05:50:16.590Z,9.75
2022-10-22T05:52:44.093Z,11.30
2022-10-22T05:55:11.444Z,10.18
2022-10-22T05:57:39.613Z,9.85
2022-10-22T06:00:07.793Z,9.25
2022-10-22T06:02:36.995Z,9.48
2022-10-22T06:05:04.365Z,11.02
2022-10-22T06:07:31.933Z,10.82
2022-10-22T06:09:59.811Z,12.50
2022-10-22T06:12:27.521Z,11.68
2022-10-22T06:14:54.841Z,11.38
2022-10-22T06:17:22.326Z,11.25
2022-10-22T06:19:49.631Z,11.70
2022-10-22T06:22:17.099Z,11.80
2022-10-22T06:24:45.231Z,11.75
2022-10-22T06:27:12.885Z,12.35
2022-10-22T06:29:40.183Z,12.38
2022-10-22T06:32:07.685Z,10.48
2022-10-22T06:34:34.964Z,9.98
2022-10-22T06:37:02.533Z,9.93
2022-10-22T06:39:29.863Z,21.05
2022-10-22T06:41:57.347Z,11.82
2022-10-22T06:44:24.664Z,11.38
2022-10-22T06:46:52.904Z,9.45
2022-10-22T06:49:20.879Z,10.32
2022-10-22T06:51:51.593Z,10.75
2022-10-22T06:54:19.416Z,11.40
2022-10-22T06:56:46.931Z,10.85
2022-10-22T06:59:14.237Z,12.13
2022-10-22T07:01:41.715Z,11.43
2022-10-22T07:04:10.294Z,12.93
2022-10-22T07:06:37.971Z,14.20
2022-10-22T07:09:05.343Z,14.88
2022-10-22T07:11:38.859Z,15.88
2022-10-22T07:23:38.363Z,11.77
2022-10-22T07:26:06.278Z,10.48
2022-10-22T07:28:34.331Z,10.73
2022-10-22T07:31:01.910Z,10.57
2022-10-22T07:33:31.967Z,14.45
2022-10-22T07:36:00.212Z,12.75
2022-10-22T07:38:27.986Z,11.88
2022-10-22T07:40:55.636Z,12.68
2022-10-22T07:43:23.262Z,11.93
2022-10-22T07:45:50.995Z,12.98
2022-10-22T07:48:18.406Z,12.77
2022-10-22T07:50:45.932Z,12.75
2022-10-22T07:53:13.221Z,13.68
2022-10-22T07:55:40.692Z,12.77
2022-10-22T07:58:08.052Z,13.70
2022-10-22T08:00:35.501Z,13.82
2022-10-22T08:03:03.055Z,15.07
2022-10-22T08:05:30.505Z,14.57
2022-10-22T08:07:59.106Z,13.73
2022-10-22T08:10:27.076Z,14.05
2022-10-22T08:12:54.978Z,13.20
2022-10-22T08:15:22.550Z,12.68
2022-10-22T08:17:49.793Z,12.65
2022-10-22T08:20:17.541Z,11.60
2022-10-22T08:22:45.087Z,11.50
2022-10-22T08:25:12.851Z,10.85
2022-10-22T08:27:40.376Z,10.35
2022-10-22T08:30:08.304Z,10.15
2022-10-22T08:32:35.745Z,10.30
2022-10-22T08:35:03.427Z,10.25
2022-10-22T08:37:30.769Z,9.95
2022-10-22T08:39:58.218Z,10.65
2022-10-22T08:42:44.465Z,11.32
2022-10-22T08:45:12.180Z,12.15
2022-10-22T08:47:58.157Z,10.60
2022-10-22T08:50:30.811Z,11.02
2022-10-22T08:53:01.164Z,10.43
2022-10-22T08:55:36.437Z,11.27
2022-10-22T08:58:13.623Z,10.43
2022-10-22T09:00:48.789Z,10.50
2022-10-22T09:06:41.087Z,9.82
2022-10-22T09:09:12.977Z,10.40
2022-10-22T09:14:11.377Z,10.23
2022-10-22T09:16:43.035Z,9.77
2022-10-22T09:19:36.587Z,10.63
2022-10-22T09:22:18.769Z,11.00
2022-10-22T09:24:47.144Z,10.15
2022-10-22T09:27:16.450Z,11.43
2022-10-22T09:29:44.630Z,10.80
2022-10-22T09:32:12.189Z,10.32
2022-10-22T09:34:39.674Z,11.02
2022-10-22T09:37:08.840Z,11.48
2022-10-22T09:39:41.211Z,10.23
2022-10-22T09:42:10.091Z,9.90
2022-10-22T09:44:37.954Z,9.52
2022-10-22T09:47:37.343Z,10.73
2022-10-22T09:50:30.198Z,9.82
2022-10-22T09:52:59.620Z,10.95
2022-10-22T09:55:27.092Z,10.82
2022-10-22T09:57:59.868Z,12.93
2022-10-22T10:00:27.415Z,14.88
2022-10-22T10:02:56.396Z,14.73
2022-10-22T10:05:30.463Z,14.60
2022-10-22T10:07:58.174Z,13.73
2022-10-22T10:10:54.802Z,13.00
2022-10-22T10:13:43.104Z,12.05
2022-10-22T10:16:28.956Z,12.48
2022-10-22T10:19:07.298Z,11.05
2022-10-22T10:21:37.390Z,10.75
2022-10-22T10:24:13.909Z,11.00
2022-10-22T10:27:04.359Z,12.05
2022-10-22T10:29:32.245Z,12.07
2022-10-22T10:32:21.124Z,10.82
2022-10-22T10:35:16.837Z,11.75
2022-10-22T10:40:39.394Z,11.35
2022-10-22T10:43:06.664Z,10.77
2022-10-22T10:45:40.251Z,9.73
2022-10-22T10:48:30.186Z,11.13
2022-10-22T10:51:24.070Z,9.90
2022-10-22T10:53:51.579Z,10.60
2022-10-22T10:59:47.814Z,11.20
2022-10-22T11:02:18.161Z,11.18
2022-10-22T11:05:00.554Z,10.85
2022-10-22T11:07:56.981Z,11.80
2022-10-22T11:10:29.776Z,11.73
2022-10-22T11:13:06.348Z,10.80
2022-10-22T11:15:37.589Z,11.98
2022-10-22T11:18:14.038Z,11.07
2022-10-22T11:20:46.416Z,11.50
2022-10-22T11:23:33.055Z,11.57
2022-10-22T11:26:01.028Z,10.80
2022-10-22T11:28:31.245Z,11.18
2022-10-22T11:31:01.573Z,14.23
2022-10-22T11:33:33.431Z,14.50
2022-10-22T11:36:03.984Z,13.68
2022-10-22T11:38:34.198Z,12.48
2022-10-22T11:41:05.458Z,12.05
2022-10-22T11:43:34.594Z,12.40
2022-10-22T11:46:22.149Z,11.90
2022-10-22T11:49:16.018Z,10.70
2022-10-22T11:51:44.150Z,11.43
2022-10-22T11:54:30.547Z,12.77
2022-10-22T11:57:12.636Z,16.27
2022-10-22T11:59:44.532Z,14.52
2022-10-22T12:02:30.406Z,13.65
2022-10-22T12:05:16.309Z,13.40
2022-10-22T12:07:52.483Z,10.43
2022-10-22T12:10:20.833Z,8.43
2022-10-22T12:13:20.505Z,8.75
2022-10-22T12:15:49.029Z,8.05
2022-10-22T12:18:16.403Z,8.52
2022-10-22T12:20:43.994Z,8.27
2022-10-22T12:23:12.470Z,8.48
2022-10-22T12:25:40.044Z,8.68
2022-10-22T12:28:10.747Z,8.40
2022-10-22T12:30:38.244Z,7.88
2022-10-22T12:36:19.058Z,7.47
2022-10-22T12:38:46.813Z,5.97
2022-10-22T12:41:14.383Z,5.55
2022-10-22T12:43:41.758Z,5.65
2022-10-22T12:46:11.714Z,5.60
2022-10-22T12:48:40.320Z,5.68
2022-10-22T12:51:08.878Z,5.22
2022-10-22T12:53:36.982Z,7.85
2022-10-22T12:56:10.681Z,5.35
2022-10-22T12:58:41.816Z,5.80
2022-10-22T13:01:11.471Z,5.80
2022-10-22T13:03:43.288Z,6.38
2022-10-22T13:08:40.699Z,6.57
2022-10-22T13:11:09.553Z,6.72
2022-10-22T13:13:36.786Z,6.18
2022-10-22T13:16:20.985Z,7.43
2022-10-22T13:18:53.301Z,7.38
2022-10-22T13:21:23.562Z,6.15
2022-10-22T13:24:13.478Z,7.05
2022-10-22T13:26:41.082Z,7.22
2022-10-22T13:29:11.717Z,7.43
2022-10-22T13:31:44.616Z,6.82
2022-10-22T13:34:16.459Z,7.43
2022-10-22T13:36:44.747Z,8.73
2022-10-22T13:39:18.739Z,8.25
2022-10-22T13:41:46.413Z,7.57
2022-10-22T13:44:13.662Z,7.72
2022-10-22T13:46:41.256Z,7.90
2022-10-22T13:49:22.811Z,7.82
2022-10-22T13:51:50.368Z,7.70
2022-10-22T13:58:12.985Z,6.55
2022-10-22T14:00:45.355Z,6.80
2022-10-22T14:03:15.043Z,6.70
2022-10-22T14:05:42.868Z,7.47
2022-10-22T14:08:12.647Z,7.35
2022-10-22T14:10:40.197Z,7.25
2022-10-22T14:13:07.961Z,7.43
2022-10-22T14:15:35.688Z,8.05
2022-10-22T14:18:04.101Z,7.53
2022-10-22T14:20:32.727Z,7.60
2022-10-22T14:23:11.786Z,7.25
2022-10-22T14:25:39.322Z,7.93
2022-10-22T14:28:08.339Z,8.10
2022-10-22T14:30:35.894Z,7.70
2022-10-22T14:33:10.159Z,7.35
2022-10-22T14:35:37.702Z,8.43
2022-10-22T14:38:04.947Z,7.72
2022-10-22T14:40:32.812Z,8.25
2022-10-22T14:43:01.505Z,8.00
2022-10-22T14:45:29.006Z,8.18
2022-10-22T14:47:56.419Z,7.82
2022-10-22T14:50:24.569Z,9.10
2022-10-22T14:52:52.475Z,8.50
2022-10-22T14:55:20.234Z,8.75
2022-10-22T14:57:47.612Z,8.50
2022-10-22T15:00:16.174Z,8.57
2022-10-22T15:02:44.238Z,9.00
2022-10-22T15:05:12.196Z,8.45
2022-10-22T15:07:40.091Z,9.02
2022-10-22T15:10:08.487Z,9.63
2022-10-22T15:12:35.993Z,8.05
2022-10-22T15:15:03.878Z,8.00
2022-10-22T15:17:31.268Z,8.75
2022-10-22T15:20:03.434Z,9.40
2022-10-22T15:22:31.588Z,9.23
2022-10-22T15:25:02.514Z,8.70
2022-10-22T15:27:32.850Z,8.23
2022-10-22T15:32:35.044Z,7.95
2022-10-22T15:35:02.737Z,9.27
2022-10-22T15:37:30.177Z,8.45
2022-10-22T15:39:57.848Z,8.23
2022-10-22T15:42:25.305Z,8.50
2022-10-22T15:44:57.585Z,8.75
2022-10-22T15:47:47.303Z,9.60
2022-10-22T15:50:15.721Z,9.43
2022-10-22T15:52:46.798Z,9.75
2022-10-22T15:55:14.380Z,10.15
2022-10-22T15:57:41.962Z,10.30
2022-10-22T16:00:12.861Z,10.18
2022-10-22T16:02:40.258Z,9.10
2022-10-22T16:05:07.994Z,9.75
2022-10-22T16:07:35.282Z,8.65
2022-10-22T16:10:02.824Z,9.35
2022-10-22T16:12:30.087Z,8.88
2022-10-22T16:14:57.542Z,8.75
2022-10-22T16:17:24.809Z,9.15
2022-10-22T16:20:04.912Z,8.23
2022-10-22T16:22:32.306Z,8.45
2022-10-22T16:24:59.844Z,9.13
2022-10-22T16:27:27.142Z,9.52
2022-10-22T16:29:54.596Z,9.75
2022-10-22T16:32:22.144Z,9.70
2022-10-22T16:34:49.620Z,10.23
2022-10-22T16:37:16.871Z,10.55
2022-10-22T16:39:44.365Z,11.18
2022-10-22T16:42:11.669Z,10.40
2022-10-22T16:44:39.257Z,11.35
2022-10-22T16:47:06.504Z,11.38
2022-10-22T16:49:34.137Z,10.80
2022-10-22T16:52:01.385Z,11.30
2022-10-22T16:54:28.871Z,10.88
2022-10-22T16:56:56.180Z,10.27
2022-10-22T16:59:23.735Z,11.02
2022-10-22T17:01:51.029Z,12.38
2022-10-22T17:04:18.651Z,13.40
2022-10-22T17:06:46.146Z,14.63
2022-10-22T17:09:13.666Z,15.23
2022-10-22T17:11:44.085Z,14.32
2022-10-22T17:14:12.419Z,15.17
2022-10-22T17:16:39.673Z,15.02
2022-10-22T17:19:07.207Z,16.13
2022-10-22T17:21:34.686Z,18.05
2022-10-22T17:24:02.251Z,14.63
2022-10-22T17:26:29.617Z,14.43
2022-10-22T17:28:57.219Z,15.00
2022-10-22T17:31:32.017Z,15.18
2022-10-22T17:33:59.846Z,16.45
2022-10-22T17:36:30.411Z,16.40
2022-10-22T17:39:03.655Z,16.25
2022-10-22T17:41:37.560Z,16.90
2022-10-22T17:44:06.998Z,19.20
2022-10-22T17:46:34.330Z,18.73
2022-10-22T17:49:03.348Z,19.05
2022-10-22T17:51:31.076Z,18.25
2022-10-22T17:57:35.702Z,16.05
2022-10-22T18:00:05.061Z,15.77
2022-10-22T18:02:32.514Z,13.70
2022-10-22T18:05:15.599Z,13.73
2022-10-22T18:07:42.944Z,12.70
2022-10-22T18:10:10.485Z,13.20
2022-10-22T18:12:46.803Z,13.73
2022-10-22T18:15:14.440Z,11.75
2022-10-22T18:21:04.755Z,12.50
2022-10-22T18:23:32.312Z,11.02
2022-10-22T18:25:59.570Z,12.07
2022-10-22T18:28:27.147Z,12.85
2022-10-22T18:30:54.488Z,11.57
2022-10-22T18:33:21.912Z,11.60
2022-10-22T18:35:49.505Z,10.88
2022-10-22T18:38:23.882Z,11.38
2022-10-22T18:40:51.179Z,10.93
2022-10-22T18:43:30.656Z,9.48
2022-10-22T18:45:57.935Z,11.10
2022-10-22T18:48:25.442Z,9.63
2022-10-22T18:51:02.958Z,9.18
2022-10-22T18:53:30.881Z,10.15
2022-10-22T18:55:58.150Z,9.90
2022-10-22T18:58:25.630Z,9.30
2022-10-22T19:00:52.925Z,8.70
2022-10-22T19:03:20.473Z,7.97
2022-10-22T19:05:49.017Z,9.45
2022-10-22T19:08:16.715Z,8.48
2022-10-22T19:10:44.604Z,7.97
2022-10-22T19:13:16.214Z,8.18
2022-10-22T19:15:43.758Z,7.53
2022-10-22T19:18:12.837Z,7.95
2022-10-22T19:20:40.112Z,8.75
2022-10-22T19:23:07.618Z,8.55
2022-10-22T19:25:34.907Z,9.10
2022-10-22T19:28:02.435Z,9.00
2022-10-22T19:30:29.755Z,9.90
2022-10-22T19:32:57.289Z,9.57
2022-10-22T19:35:24.543Z,9.93
2022-10-22T19:37:52.111Z,10.68
2022-10-22T19:40:19.550Z,14.90
2022-10-22T19:42:48.310Z,15.15
2022-10-22T19:45:15.758Z,14.43
2022-10-22T19:47:52.277Z,13.73
2022-10-22T19:50:19.527Z,12.23
2022-10-22T19:52:47.008Z,13.07
2022-10-22T19:55:14.347Z,12.55
2022-10-22T19:57:42.098Z,10.88
2022-10-22T20:00:10.013Z,10.80
2022-10-22T20:02:38.072Z,10.13
2022-10-22T20:05:05.654Z,9.02
2022-10-22T20:07:33.190Z,10.35
2022-10-22T20:10:00.546Z,10.02
2022-10-22T20:12:28.090Z,11.50
2022-10-22T20:15:07.238Z,11.60
2022-10-22T20:17:34.875Z,12.25
2022-10-22T20:20:03.566Z,12.77
2022-10-22T20:22:34.649Z,12.98
2022-10-22T20:25:05.775Z,12.88
2022-10-22T20:27:33.419Z,12.70
2022-10-22T20:30:00.811Z,13.43
2022-10-22T20:32:30.892Z,11.27
2022-10-22T20:34:58.245Z,9.88
2022-10-22T20:37:25.815Z,10.85
2022-10-22T20:39:53.108Z,9.70
2022-10-22T20:42:20.620Z,11.13
2022-10-22T20:44:47.880Z,10.43
2022-10-22T20:47:18.219Z,11.10
2022-10-22T20:49:48.429Z,11.00
2022-10-22T20:52:15.908Z,10.90
2022-10-22T20:54:43.272Z,10.60
2022-10-22T20:57:11.920Z,11.15
2022-10-22T20:59:39.276Z,10.23
2022-10-22T21:02:08.171Z,11.02
2022-10-22T21:04:35.435Z,11.93
2022-10-22T21:07:03.054Z,11.20
2022-10-22T21:09:30.333Z,10.93
2022-10-22T21:11:57.831Z,11.30
2022-10-22T21:14:25.130Z,11.00
2022-10-22T21:16:52.803Z,10.50
2022-10-22T21:19:20.740Z,11.07
2022-10-22T21:21:48.631Z,10.50
2022-10-22T21:24:15.921Z,10.20
2022-10-22T21:26:44.087Z,9.85
2022-10-22T21:29:12.366Z,8.40
2022-10-22T21:31:39.926Z,9.57
2022-10-22T21:34:07.270Z,10.23
2022-10-22T21:39:14.599Z,10.60
2022-10-22T21:41:42.125Z,10.32
2022-10-22T21:44:09.583Z,9.68
2022-10-22T21:46:37.297Z,9.52
2022-10-22T21:49:07.158Z,9.18
2022-10-22T21:51:35.434Z,8.40
2022-10-22T21:54:02.763Z,9.40
2022-10-22T21:56:31.891Z,8.38
2022-10-22T21:58:59.168Z,7.80
2022-10-22T22:01:26.799Z,8.02
2022-10-22T22:03:54.289Z,8.20
2022-10-22T22:06:33.370Z,8.32
2022-10-22T22:09:02.159Z,8.93
2022-10-22T22:11:32.889Z,9.30
2022-10-22T22:14:04.477Z,9.32
2022-10-22T22:16:45.666Z,8.98
2022-10-22T22:19:13.005Z,10.18
2022-10-22T22:21:46.788Z,9.98
2022-10-22T22:24:16.973Z,9.57
2022-10-22T22:26:47.970Z,10.57
2022-10-22T22:29:17.732Z,10.95
2022-10-22T22:31:48.170Z,11.73
2022-10-22T22:34:17.689Z,10.05
2022-10-22T22:36:46.334Z,10.48
2022-10-22T22:39:15.018Z,11.68
2022-10-22T22:41:42.860Z,11.27
2022-10-22T22:44:10.455Z,10.20
2022-10-22T22:46:38.051Z,10.63
2022-10-22T22:49:05.488Z,10.60
2022-10-22T22:51:34.400Z,11.05
2022-10-22T22:54:04.455Z,10.50
2022-10-22T22:56:32.820Z,9.43
2022-10-22T22:59:00.193Z,10.82
2022-10-22T23:01:34.892Z,10.52
2022-10-22T23:04:13.242Z,10.93
2022-10-22T23:06:40.781Z,10.13
2022-10-22T23:09:09.720Z,10.77
2022-10-22T23:11:37.539Z,10.23
2022-10-22T23:14:05.711Z,10.13
2022-10-22T23:16:34.603Z,9.70
2022-10-22T23:19:02.001Z,9.00
2022-10-22T23:21:32.725Z,9.02
2022-10-22T23:24:02.343Z,8.70
2022-10-22T23:26:33.913Z,8.63
2022-10-22T23:29:02.084Z,10.20
2022-10-22T23:31:29.722Z,9.25
2022-10-22T23:33:57.258Z,9.35
2022-10-22T23:36:24.878Z,9.77
2022-10-22T23:38:52.274Z,9.82
2022-10-22T23:41:19.834Z,9.23
2022-10-22T23:43:47.188Z,9.75
2022-10-22T23:46:14.655Z,9.30
2022-10-22T23:48:42.037Z,10.00
2022-10-22T23:51:11.265Z,9.20
2022-10-22T23:53:38.908Z,10.07
2022-10-22T23:56:07.551Z,9.32
2022-10-22T23:58:35.219Z,11.00
